Time;durP1;ratioP1;P1;durP2;ratioP2;P2;SDS_P1;SDS_P2;PMS_P1;PMS_P2;Temp;Humidity;BMP_temperature;BMP_pressure;BME280_temperature;BME280_humidity;BME280_pressure;Samples;Min_cycle;Max_cycle;Signal;HPM_P1;HPM_P2
2022/12/26 00:01:29;;;;;;;6.15;3.75;;;18.70;54.70;;;;;;5097310;28;20610;-82
2022/12/26 00:03:56;;;;;;;4.43;3.85;;;18.60;54.40;;;;;;5098062;28;20202;-82
2022/12/26 00:06:24;;;;;;;4.38;3.97;;;18.60;54.60;;;;;;5097284;28;20186;-82
2022/12/26 00:08:53;;;;;;;4.40;4.00;;;18.60;54.50;;;;;;5098790;28;20228;-82
2022/12/26 00:11:20;;;;;;;6.05;4.13;;;18.60;54.60;;;;;;5100233;28;20206;-83
2022/12/26 00:13:47;;;;;;;6.18;3.92;;;18.60;54.70;;;;;;5097668;28;20213;-83
2022/12/26 00:16:16;;;;;;;232.40;99.75;;;18.60;54.60;;;;;;5096862;28;20194;-83
2022/12/26 00:18:44;;;;;;;89.68;38.88;;;18.60;54.70;;;;;;5096111;28;20218;-82
2022/12/26 00:21:12;;;;;;;57.63;26.10;;;18.60;54.60;;;;;;5079615;28;20198;-83
2022/12/26 00:23:39;;;;;;;61.78;26.98;;;18.60;54.70;;;;;;5079324;28;20247;-83
2022/12/26 00:26:08;;;;;;;66.03;28.08;;;18.60;54.80;;;;;;5096015;28;20194;-83
2022/12/26 00:28:35;;;;;;;57.17;26.92;;;18.50;54.70;;;;;;5095979;28;20661;-83
2022/12/26 00:31:04;;;;;;;55.75;24.80;;;18.50;54.40;;;;;;5095950;28;20190;-82
2022/12/26 00:33:31;;;;;;;50.42;22.98;;;18.50;54.50;;;;;;5095760;28;20653;-82
2022/12/26 00:36:01;;;;;;;42.20;21.80;;;18.50;54.40;;;;;;5095901;28;20198;-82
2022/12/26 00:38:28;;;;;;;46.88;22.30;;;18.40;54.40;;;;;;5079028;28;20279;-83
2022/12/26 00:40:58;;;;;;;47.67;22.33;;;18.40;54.40;;;;;;5095867;28;20243;-83
2022/12/26 00:43:26;;;;;;;42.75;19.60;;;18.30;54.40;;;;;;5095801;28;20194;-83
2022/12/26 00:45:53;;;;;;;42.50;20.30;;;18.30;54.50;;;;;;5095512;28;20632;-83
2022/12/26 00:48:20;;;;;;;36.60;18.35;;;18.30;54.60;;;;;;5095759;28;20622;-83
2022/12/26 00:50:47;;;;;;;40.35;18.45;;;18.20;54.50;;;;;;5096168;28;20198;-83
2022/12/26 00:53:15;;;;;;;37.53;17.88;;;18.20;54.50;;;;;;5096284;28;20200;-83
2022/12/26 00:55:42;;;;;;;39.17;18.58;;;18.20;54.60;;;;;;5096212;28;20212;-83
2022/12/26 00:58:09;;;;;;;31.75;16.85;;;18.20;54.60;;;;;;5096223;28;20214;-83
2022/12/26 01:00:38;;;;;;;33.35;16.98;;;18.10;54.40;;;;;;5079389;28;20673;-83
2022/12/26 01:03:07;;;;;;;34.05;16.90;;;18.10;54.40;;;;;;5096318;28;20194;-83
2022/12/26 01:05:34;;;;;;;33.22;17.55;;;18.10;54.50;;;;;;5096374;28;20676;-83
2022/12/26 01:08:00;;;;;;;38.03;17.75;;;18.10;54.50;;;;;;5096739;28;20221;-83
2022/12/26 01:10:28;;;;;;;30.13;14.52;;;18.10;54.40;;;;;;5097047;28;20186;-83
2022/12/26 01:12:55;;;;;;;33.95;16.60;;;18.10;54.40;;;;;;5096728;28;20615;-83
2022/12/26 01:15:22;;;;;;;31.17;16.42;;;18.00;54.40;;;;;;5078916;28;20202;-82
2022/12/26 01:17:51;;;;;;;31.80;15.95;;;18.00;54.40;;;;;;5096607;28;20554;-82
2022/12/26 01:20:18;;;;;;;27.08;14.32;;;18.00;54.30;;;;;;5063185;28;20304;-83
2022/12/26 01:22:45;;;;;;;29.95;14.82;;;18.00;54.30;;;;;;5096305;28;20202;-83
2022/12/26 01:25:12;;;;;;;26.40;14.55;;;18.00;54.40;;;;;;5095827;28;20198;-82
2022/12/26 01:27:39;;;;;;;29.77;14.27;;;18.00;54.60;;;;;;5096122;28;20267;-83
2022/12/26 01:30:10;;;;;;;26.20;14.15;;;17.90;54.30;;;;;;5096667;28;20190;-83
2022/12/26 01:32:38;;;;;;;28.73;14.10;;;17.90;54.30;;;;;;5096200;28;20277;-83
2022/12/26 01:35:07;;;;;;;27.33;13.50;;;17.90;54.30;;;;;;5097348;28;20243;-82
2022/12/26 01:37:35;;;;;;;25.92;14.15;;;17.90;54.30;;;;;;5095238;28;20696;-82
2022/12/26 01:40:02;;;;;;;26.65;13.88;;;17.90;54.30;;;;;;5094722;28;20267;-82
2022/12/26 01:42:36;;;;;;;25.70;13.15;;;17.90;54.40;;;;;;5096791;28;20575;-83
2022/12/26 01:45:04;;;;;;;23.42;12.30;;;17.90;54.40;;;;;;5096090;28;20693;-83
2022/12/26 01:47:39;;;;;;;23.65;12.45;;;17.80;54.40;;;;;;5096905;28;20228;-83
2022/12/26 01:50:14;;;;;;;23.85;13.07;;;17.80;54.40;;;;;;5096405;28;20190;-83
2022/12/26 01:52:44;;;;;;;24.02;12.90;;;17.80;54.30;;;;;;5095846;28;20640;-83
2022/12/26 01:55:11;;;;;;;21.13;11.63;;;17.80;54.20;;;;;;5096008;28;20198;-83
2022/12/26 01:57:41;;;;;;;25.02;12.13;;;17.80;54.20;;;;;;5097252;28;20672;-83
2022/12/26 02:00:09;;;;;;;20.70;11.90;;;17.80;54.30;;;;;;5096457;28;20221;-82
2022/12/26 02:05:43;;;;;;;17.10;10.48;;;17.80;54.30;;;;;;5094225;28;20201;-82
2022/12/26 02:08:11;;;;;;;23.98;11.15;;;17.70;54.20;;;;;;5094297;28;20594;-82
2022/12/26 02:10:48;;;;;;;19.77;10.90;;;17.70;54.30;;;;;;5094458;28;20194;-83
2022/12/26 02:13:16;;;;;;;16.25;10.32;;;17.70;54.30;;;;;;5094196;28;20190;-83
2022/12/26 02:15:43;;;;;;;18.17;10.48;;;17.70;54.30;;;;;;5093986;28;20209;-83
2022/12/26 02:18:10;;;;;;;18.63;10.30;;;17.70;54.40;;;;;;5077157;28;20221;-82
2022/12/26 02:20:41;;;;;;;18.80;10.68;;;17.70;54.40;;;;;;5077560;28;20214;-82
2022/12/26 02:23:41;;;;;;;17.90;10.43;;;17.60;54.30;;;;;;5096309;28;20210;-83
2022/12/26 02:26:49;;;;;;;18.80;10.23;;;17.70;54.50;;;;;;5091327;28;20194;-82
2022/12/26 02:29:57;;;;;;;18.58;9.90;;;17.70;54.50;;;;;;5094267;28;20271;-83
2022/12/26 02:32:31;;;;;;;17.02;9.25;;;17.60;54.40;;;;;;5091742;28;20212;-83
2022/12/26 02:35:01;;;;;;;18.83;10.63;;;17.60;54.30;;;;;;5093990;28;20628;-83
2022/12/26 02:37:36;;;;;;;15.25;9.65;;;17.60;54.40;;;;;;5095476;28;20251;-82
2022/12/26 02:40:15;;;;;;;18.15;9.80;;;17.60;54.30;;;;;;5077960;28;20608;-82
2022/12/26 02:42:48;;;;;;;15.95;9.57;;;17.60;54.30;;;;;;5095180;28;20186;-82
2022/12/26 02:48:07;;;;;;;16.30;9.68;;;17.60;54.30;;;;;;5096531;28;20225;-83
2022/12/26 03:13:12;;;;;;;13.57;8.52;;;17.50;54.50;;;;;;5093150;28;20201;-83
2022/12/26 03:18:27;;;;;;;16.40;8.43;;;17.50;54.50;;;;;;5079662;28;20224;-83
2022/12/26 03:20:55;;;;;;;13.57;8.35;;;17.50;54.50;;;;;;5093241;28;20220;-83
2022/12/26 03:23:23;;;;;;;13.95;8.50;;;17.50;54.50;;;;;;5093299;28;20644;-83
2022/12/26 03:28:37;;;;;;;13.25;8.00;;;17.50;54.60;;;;;;5092782;28;20209;-83
2022/12/26 03:31:04;;;;;;;11.38;7.30;;;17.50;54.50;;;;;;5092923;28;20191;-83
2022/12/26 03:36:24;;;;;;;11.75;7.60;;;17.50;54.60;;;;;;5094788;28;20166;-83
2022/12/26 03:38:56;;;;;;;11.38;7.50;;;17.40;54.50;;;;;;5076873;28;20228;-82
2022/12/26 04:20:31;;;;;;;9.75;6.78;;;17.30;54.50;;;;;;5096580;28;20573;-82
2022/12/26 04:45:11;;;;;;;10.68;6.22;;;17.50;54.70;;;;;;5095991;28;20190;-83
2022/12/26 04:50:10;;;;;;;9.15;5.93;;;17.40;54.70;;;;;;5095866;28;20275;-83
2022/12/26 04:50:24;;;;;;;8.60;5.90;;;17.40;54.70;;;;;;5095621;28;20194;-83
2022/12/26 04:52:58;;;;;;;10.43;6.55;;;17.50;54.60;;;;;;5095686;28;20194;-83
2022/12/26 04:55:26;;;;;;;9.65;6.18;;;17.50;54.50;;;;;;5096542;28;20194;-83
2022/12/26 04:57:55;;;;;;;10.75;6.35;;;17.50;54.50;;;;;;5095398;28;20759;-83
2022/12/26 05:00:23;;;;;;;8.55;5.75;;;17.50;54.50;;;;;;5095837;28;20236;-83
2022/12/26 05:11:11;;;;;;;8.45;5.03;;;17.60;54.40;;;;;;5095725;28;20298;-83
2022/12/26 05:13:39;;;;;;;7.70;5.57;;;17.60;54.20;;;;;;5094615;28;20217;-83
2022/12/26 05:29:53;;;;;;;6.82;5.20;;;17.70;54.20;;;;;;5095503;28;20201;-83
2022/12/26 05:35:06;;;;;;;8.68;5.60;;;17.70;53.90;;;;;;5094867;28;20243;-83
2022/12/26 05:37:34;;;;;;;7.50;5.28;;;17.70;53.90;;;;;;5094759;28;20225;-83
2022/12/26 05:40:01;;;;;;;8.20;5.43;;;17.70;53.90;;;;;;5078182;28;20214;-83
2022/12/26 05:42:28;;;;;;;6.47;4.82;;;17.80;53.90;;;;;;5095406;28;20194;-83
2022/12/26 05:44:56;;;;;;;7.78;5.18;;;17.80;53.80;;;;;;5094718;28;20198;-83
2022/12/26 05:47:24;;;;;;;8.30;5.65;;;17.80;53.80;;;;;;5094594;28;20569;-83
2022/12/26 05:49:51;;;;;;;9.23;5.07;;;17.80;53.70;;;;;;5095450;28;20202;-83
2022/12/26 05:52:19;;;;;;;9.00;5.15;;;17.80;53.60;;;;;;5094862;28;20206;-83
2022/12/26 05:54:46;;;;;;;7.93;4.97;;;17.90;53.60;;;;;;5077633;28;20565;-83
2022/12/26 05:57:13;;;;;;;8.25;5.00;;;17.90;53.60;;;;;;5077451;28;20563;-83
2022/12/26 05:59:40;;;;;;;7.00;4.90;;;17.80;53.40;;;;;;5094083;28;20205;-83
2022/12/26 06:02:09;;;;;;;7.90;4.55;;;17.90;53.50;;;;;;5094182;28;20218;-83
2022/12/26 06:04:36;;;;;;;7.63;4.57;;;17.90;53.50;;;;;;5077359;28;20268;-83
2022/12/26 06:07:03;;;;;;;6.53;4.63;;;17.90;53.30;;;;;;5094024;28;20190;-83
2022/12/26 06:09:30;;;;;;;6.95;5.00;;;18.00;53.50;;;;;;5077307;28;20221;-83
2022/12/26 06:11:58;;;;;;;5.60;4.22;;;18.00;53.40;;;;;;5093882;28;20200;-83
2022/12/26 06:14:25;;;;;;;6.72;4.53;;;18.00;53.40;;;;;;5094161;28;20194;-83
2022/12/26 06:16:52;;;;;;;6.07;4.60;;;18.00;53.40;;;;;;5094360;28;20250;-83
2022/12/26 06:19:20;;;;;;;6.45;4.65;;;18.00;53.30;;;;;;5093964;28;20304;-83
2022/12/26 06:21:48;;;;;;;6.70;4.95;;;18.00;53.30;;;;;;5094225;28;20680;-84
2022/12/26 06:24:15;;;;;;;5.50;4.57;;;18.00;53.20;;;;;;5094507;28;20209;-82
2022/12/26 06:26:43;;;;;;;6.38;4.38;;;18.10;53.20;;;;;;5094127;28;20229;-82
2022/12/26 06:29:10;;;;;;;7.07;4.88;;;18.10;53.10;;;;;;5094125;28;20233;-83
2022/12/26 06:31:37;;;;;;;7.47;4.53;;;18.10;53.10;;;;;;5060468;28;20243;-83
2022/12/26 06:34:05;;;;;;;6.78;4.75;;;18.10;53.10;;;;;;5094046;28;20199;-83
2022/12/26 06:36:33;;;;;;;7.13;4.80;;;18.10;53.10;;;;;;5093743;28;20281;-83
2022/12/26 06:39:00;;;;;;;4.97;3.90;;;18.10;53.10;;;;;;5093162;28;20576;-83
2022/12/26 06:41:27;;;;;;;6.50;4.75;;;18.10;53.10;;;;;;5093834;28;20622;-83
2022/12/26 06:43:55;;;;;;;6.18;3.90;;;18.20;53.10;;;;;;5076882;28;20198;-83
2022/12/26 06:46:25;;;;;;;5.53;4.32;;;18.20;53.10;;;;;;5093751;28;20214;-83
2022/12/26 06:48:52;;;;;;;4.82;3.95;;;18.10;53.00;;;;;;5093232;28;20250;-83
2022/12/26 06:51:20;;;;;;;6.38;4.65;;;18.20;53.10;;;;;;5093115;28;20197;-83
2022/12/26 06:53:49;;;;;;;5.15;4.22;;;18.20;53.10;;;;;;5093469;28;20198;-83
2022/12/26 06:56:17;;;;;;;7.05;4.60;;;18.20;53.10;;;;;;5093992;28;20221;-83
2022/12/26 06:58:44;;;;;;;6.38;4.70;;;18.20;53.10;;;;;;5094090;28;20225;-82
2022/12/26 07:01:12;;;;;;;5.65;4.43;;;18.20;52.90;;;;;;5093635;28;20213;-83
2022/12/26 07:03:39;;;;;;;5.65;4.35;;;18.20;52.90;;;;;;5093538;28;20201;-83
2022/12/26 07:06:08;;;;;;;6.30;4.40;;;18.20;52.90;;;;;;5093523;28;20194;-83
2022/12/26 07:08:35;;;;;;;5.95;4.22;;;18.20;52.90;;;;;;5093637;28;20221;-83
2022/12/26 07:11:03;;;;;;;8.45;4.20;;;18.20;52.90;;;;;;5093660;28;20671;-83
2022/12/26 07:13:31;;;;;;;5.68;4.30;;;18.20;52.90;;;;;;5093836;28;20194;-83
2022/12/26 07:15:59;;;;;;;6.35;4.30;;;18.30;52.90;;;;;;5093625;28;20230;-82
2022/12/26 07:18:26;;;;;;;6.00;4.30;;;18.30;52.90;;;;;;5093957;28;20222;-83
2022/12/26 07:20:53;;;;;;;6.57;4.20;;;18.30;52.90;;;;;;5096464;28;20217;-83
2022/12/26 07:23:20;;;;;;;5.60;4.28;;;18.30;52.80;;;;;;5094085;28;20208;-83
2022/12/26 07:25:47;;;;;;;5.93;4.45;;;18.30;52.80;;;;;;5077202;28;20563;-83
2022/12/26 07:28:16;;;;;;;6.22;4.28;;;18.30;52.70;;;;;;5093586;28;20214;-83
2022/12/26 07:30:47;;;;;;;6.15;4.03;;;18.40;52.70;;;;;;5093440;28;20198;-84
2022/12/26 07:33:14;;;;;;;4.60;3.67;;;18.30;52.70;;;;;;5093364;28;20629;-83
2022/12/26 07:35:41;;;;;;;5.47;4.38;;;18.40;52.70;;;;;;5093514;28;20298;-83
2022/12/26 07:38:08;;;;;;;4.72;3.97;;;18.40;52.70;;;;;;5097097;28;20221;-83
2022/12/26 07:40:35;;;;;;;6.03;4.25;;;18.40;52.70;;;;;;5081053;28;20194;-83
2022/12/26 07:43:02;;;;;;;6.55;4.40;;;18.40;52.70;;;;;;5097989;28;20228;-83
2022/12/26 07:45:31;;;;;;;6.13;4.05;;;18.40;52.70;;;;;;5097354;28;20667;-83
2022/12/26 07:47:58;;;;;;;4.85;4.00;;;18.40;52.60;;;;;;5097010;28;20579;-83
2022/12/26 07:50:25;;;;;;;5.15;4.10;;;18.40;52.70;;;;;;5097342;28;20206;-83
2022/12/26 07:52:53;;;;;;;4.38;3.88;;;18.40;52.70;;;;;;5100405;28;20196;-83
2022/12/26 07:55:20;;;;;;;5.03;3.88;;;18.40;52.70;;;;;;5099494;28;20194;-83
2022/12/26 07:57:49;;;;;;;6.15;3.97;;;18.40;52.60;;;;;;5097937;28;20214;-83
2022/12/26 08:00:17;;;;;;;4.75;3.92;;;18.40;52.60;;;;;;5098878;28;20247;-82
2022/12/26 08:02:47;;;;;;;4.85;4.05;;;18.40;52.60;;;;;;5098931;28;20222;-83
2022/12/26 08:05:14;;;;;;;5.32;3.95;;;18.40;52.60;;;;;;5097494;28;20655;-83
2022/12/26 08:07:42;;;;;;;4.88;3.90;;;18.50;52.70;;;;;;5097582;28;20210;-82
2022/12/26 08:10:10;;;;;;;5.95;4.13;;;18.50;52.70;;;;;;5080126;28;20198;-84
2022/12/26 08:12:37;;;;;;;4.18;3.67;;;18.40;52.60;;;;;;5096658;28;20580;-84
2022/12/26 08:15:05;;;;;;;4.95;4.38;;;18.50;52.70;;;;;;5079314;28;20263;-84
2022/12/26 08:17:32;;;;;;;4.85;4.32;;;18.40;52.60;;;;;;5097166;28;20210;-85
2022/12/26 08:20:01;;;;;;;5.15;4.00;;;18.40;52.60;;;;;;5079719;28;20534;-84
2022/12/26 08:22:28;;;;;;;6.00;4.15;;;18.50;52.70;;;;;;5095955;28;20605;-84
2022/12/26 08:24:55;;;;;;;4.50;3.97;;;18.50;52.70;;;;;;5095770;28;20190;-84
2022/12/26 08:27:24;;;;;;;4.07;3.55;;;18.50;52.70;;;;;;5095626;28;20201;-84
2022/12/26 08:29:51;;;;;;;4.80;3.80;;;18.50;52.80;;;;;;5079224;28;20198;-84
2022/12/26 08:32:18;;;;;;;4.18;3.58;;;18.50;52.80;;;;;;5095836;28;20194;-84
2022/12/26 08:34:46;;;;;;;5.45;3.85;;;18.50;52.70;;;;;;5096851;28;20536;-84
2022/12/26 08:37:14;;;;;;;5.47;4.10;;;18.50;52.70;;;;;;5095146;28;20263;-84
2022/12/26 08:39:41;;;;;;;6.07;4.30;;;18.50;52.70;;;;;;5095305;28;20198;-84
2022/12/26 08:42:08;;;;;;;4.25;3.83;;;18.50;52.80;;;;;;5095272;28;20213;-84
2022/12/26 08:44:35;;;;;;;6.15;3.75;;;18.50;52.70;;;;;;5095489;28;20213;-84
2022/12/26 08:47:02;;;;;;;4.30;3.40;;;18.50;52.70;;;;;;5095542;28;20209;-84
2022/12/26 08:49:30;;;;;;;4.57;3.70;;;18.50;52.70;;;;;;5093870;28;20715;-84
2022/12/26 08:51:57;;;;;;;4.60;3.75;;;18.50;52.70;;;;;;5078591;28;20205;-84
2022/12/26 08:54:25;;;;;;;5.07;3.88;;;18.50;52.70;;;;;;5094859;28;20205;-84
2022/12/26 08:56:52;;;;;;;5.10;3.88;;;18.50;52.70;;;;;;5095191;28;20194;-84
2022/12/26 08:59:19;;;;;;;4.50;3.65;;;18.60;52.70;;;;;;5095296;28;20312;-84
2022/12/26 09:01:47;;;;;;;4.50;3.60;;;18.60;52.70;;;;;;5078231;28;20218;-84
2022/12/26 09:04:14;;;;;;;5.13;4.00;;;18.50;52.70;;;;;;5095807;28;20194;-84
2022/12/26 09:06:41;;;;;;;5.03;3.80;;;18.60;52.70;;;;;;5094924;28;20209;-84
2022/12/26 09:09:10;;;;;;;4.72;3.83;;;18.50;52.70;;;;;;5094744;28;20226;-84
2022/12/26 09:11:38;;;;;;;4.63;3.88;;;18.60;52.70;;;;;;5095435;28;20284;-84
2022/12/26 09:14:05;;;;;;;4.65;3.78;;;18.60;52.70;;;;;;5095342;28;20574;-84
2022/12/26 09:16:34;;;;;;;5.22;3.92;;;18.60;53.40;;;;;;5095881;28;20209;-83
2022/12/26 09:19:02;;;;;;;5.35;3.58;;;18.60;52.70;;;;;;5095110;28;20565;-84
2022/12/26 09:21:29;;;;;;;4.75;3.67;;;18.60;52.70;;;;;;5094833;28;20210;-84
2022/12/26 09:23:57;;;;;;;4.18;3.78;;;18.60;52.70;;;;;;5094840;28;20727;-84
2022/12/26 09:26:24;;;;;;;4.78;3.50;;;18.60;52.70;;;;;;5094772;28;20202;-84
2022/12/26 09:28:53;;;;;;;5.53;3.65;;;18.60;52.70;;;;;;5094428;28;20211;-84
2022/12/26 09:31:22;;;;;;;4.15;3.60;;;18.60;52.60;;;;;;5094905;28;20213;-84
2022/12/26 09:33:49;;;;;;;4.28;3.55;;;18.50;52.60;;;;;;5095482;28;20220;-84
2022/12/26 09:36:19;;;;;;;6.00;3.55;;;18.60;52.70;;;;;;5094525;28;20221;-83
2022/12/26 09:38:47;;;;;;;4.53;3.60;;;18.60;52.80;;;;;;5094786;28;20316;-84
2022/12/26 09:41:32;;;;;;;4.38;3.78;;;18.60;52.70;;;;;;5094433;28;20194;-86
2022/12/26 09:44:05;;;;;;;4.15;3.75;;;18.60;52.70;;;;;;5094402;28;20625;-87
2022/12/26 09:46:34;;;;;;;6.85;4.65;;;18.60;52.80;;;;;;5094489;28;20210;-85
2022/12/26 09:49:03;;;;;;;4.65;4.03;;;18.60;52.70;;;;;;5094053;28;20214;-85
2022/12/26 09:51:31;;;;;;;4.90;4.15;;;18.60;52.70;;;;;;5094742;28;20197;-86
2022/12/26 09:53:58;;;;;;;6.40;4.20;;;18.60;52.80;;;;;;5077497;28;20204;-86
2022/12/26 09:56:25;;;;;;;6.80;4.60;;;18.60;52.80;;;;;;5094895;28;20232;-86
2022/12/26 09:58:53;;;;;;;5.90;4.35;;;18.60;52.70;;;;;;5093653;28;20255;-86
2022/12/26 10:01:23;;;;;;;5.50;4.75;;;18.60;52.70;;;;;;5093623;28;20194;-86
2022/12/26 10:03:51;;;;;;;6.97;4.47;;;18.60;53.10;;;;;;5093975;28;20194;-85
2022/12/26 10:06:19;;;;;;;8.27;4.30;;;18.70;54.00;;;;;;5077028;28;20288;-85
2022/12/26 10:09:05;;;;;;;5.32;4.32;;;18.60;54.20;;;;;;5094540;28;20221;-85
2022/12/26 10:11:40;;;;;;;7.28;4.30;;;18.60;54.60;;;;;;5094249;28;20205;-85
2022/12/26 10:14:12;;;;;;;4.03;3.63;;;18.70;54.60;;;;;;5111253;28;20201;-84
2022/12/26 10:16:46;;;;;;;4.50;3.85;;;18.70;54.60;;;;;;5094466;28;20190;-85
2022/12/26 10:19:19;;;;;;;4.40;4.00;;;18.70;54.60;;;;;;5094090;28;20274;-85
2022/12/26 10:21:49;;;;;;;5.03;4.13;;;18.80;55.00;;;;;;5094386;28;20263;-84
2022/12/26 10:24:17;;;;;;;6.70;4.47;;;18.80;55.30;;;;;;5100524;28;20186;-83
2022/12/26 10:26:45;;;;;;;6.35;4.75;;;18.80;55.80;;;;;;5096039;28;20213;-83
2022/12/26 10:29:15;;;;;;;7.95;5.00;;;18.80;55.80;;;;;;5095024;28;20267;-83
2022/12/26 10:31:45;;;;;;;13.38;6.50;;;18.90;55.80;;;;;;5095245;28;20190;-83
2022/12/26 10:34:15;;;;;;;10.45;6.28;;;19.00;55.70;;;;;;5094527;28;20205;-83
2022/12/26 10:36:46;;;;;;;11.93;7.03;;;19.00;55.60;;;;;;5095026;28;20182;-83
2022/12/26 10:39:17;;;;;;;7.57;5.45;;;19.10;55.60;;;;;;5096605;28;20730;-84
2022/12/26 10:41:46;;;;;;;7.32;4.82;;;19.10;55.50;;;;;;5078163;28;20214;-84
2022/12/26 10:44:14;;;;;;;7.30;5.07;;;19.10;55.50;;;;;;5094735;28;20568;-85
2022/12/26 10:46:55;;;;;;;6.65;4.50;;;19.20;55.50;;;;;;5094622;28;20197;-85
2022/12/26 10:49:24;;;;;;;5.10;4.03;;;19.20;55.50;;;;;;5093682;28;20282;-85
2022/12/26 10:51:51;;;;;;;6.10;3.97;;;19.20;55.50;;;;;;5093254;28;20197;-85
2022/12/26 10:54:19;;;;;;;6.60;4.30;;;19.20;55.30;;;;;;5093577;28;20690;-86
2022/12/26 10:56:48;;;;;;;5.38;4.25;;;19.30;55.10;;;;;;5093077;28;20656;-86
2022/12/26 10:59:16;;;;;;;6.07;4.30;;;19.30;55.10;;;;;;5092967;28;20261;-86
2022/12/26 11:01:46;;;;;;;6.72;4.05;;;19.30;55.30;;;;;;5093535;28;20218;-86
2022/12/26 11:04:21;;;;;;;6.13;4.30;;;19.30;55.20;;;;;;5076429;28;20571;-84
2022/12/26 11:06:51;;;;;;;4.53;4.03;;;19.30;55.30;;;;;;5093155;28;20225;-84
2022/12/26 11:09:35;;;;;;;7.55;4.55;;;19.30;55.40;;;;;;5092909;28;20214;-85
2022/12/26 11:12:02;;;;;;;6.30;4.55;;;19.30;56.00;;;;;;5092248;28;20684;-84
2022/12/26 11:14:31;;;;;;;5.38;4.70;;;19.20;55.60;;;;;;5093115;28;20193;-84
2022/12/26 11:16:59;;;;;;;6.93;5.15;;;19.20;54.90;;;;;;5093743;28;20194;-84
2022/12/26 11:19:28;;;;;;;9.20;6.05;;;19.10;54.60;;;;;;5093168;28;20222;-83
2022/12/26 11:21:57;;;;;;;9.57;6.78;;;19.20;55.00;;;;;;5094096;28;20210;-83
2022/12/26 11:24:24;;;;;;;12.13;6.95;;;19.20;54.50;;;;;;5093223;28;20271;-83
2022/12/26 11:26:51;;;;;;;11.55;6.88;;;19.20;55.00;;;;;;5093479;28;20194;-83
2022/12/26 11:29:19;;;;;;;19.80;11.07;;;19.20;55.30;;;;;;5094622;28;20296;-82
2022/12/26 11:31:50;;;;;;;14.93;9.10;;;19.20;55.00;;;;;;5108168;28;20212;-82
2022/12/26 11:34:23;;;;;;;11.73;7.65;;;19.20;55.20;;;;;;5112016;28;20186;-82
2022/12/26 11:36:51;;;;;;;12.00;6.75;;;19.20;55.10;;;;;;5102538;28;20201;-82
2022/12/26 11:39:22;;;;;;;12.68;7.47;;;19.20;55.30;;;;;;5093510;28;20217;-82
2022/12/26 11:41:49;;;;;;;11.10;7.53;;;19.20;56.00;;;;;;5093548;28;20190;-82
2022/12/26 11:44:20;;;;;;;11.20;6.82;;;19.30;55.50;;;;;;5093179;28;20197;-82
2022/12/26 11:46:49;;;;;;;8.98;6.38;;;19.20;55.00;;;;;;5093074;28;20205;-82
2022/12/26 11:49:18;;;;;;;12.38;8.00;;;19.20;54.80;;;;;;5092793;28;20217;-82
2022/12/26 11:51:47;;;;;;;12.98;7.10;;;19.30;54.60;;;;;;5093010;28;20194;-82
2022/12/26 11:54:28;;;;;;;11.77;6.85;;;19.30;54.60;;;;;;5092479;28;20202;-83
2022/12/26 11:57:18;;;;;;;7.80;5.60;;;19.20;54.50;;;;;;5092552;28;20196;-82
2022/12/26 11:59:45;;;;;;;8.35;5.60;;;19.30;54.50;;;;;;5076564;28;20587;-82
2022/12/26 12:02:16;;;;;;;6.32;4.65;;;19.20;54.40;;;;;;5092743;28;20210;-82
2022/12/26 12:04:44;;;;;;;8.57;6.60;;;19.20;54.20;;;;;;5094080;28;20544;-79
2022/12/26 12:07:16;;;;;;;8.55;5.80;;;19.20;54.40;;;;;;5092906;28;20197;-79
2022/12/26 12:09:47;;;;;;;8.15;4.90;;;19.20;54.60;;;;;;5109353;28;20202;-79
2022/12/26 12:12:16;;;;;;;10.52;5.20;;;19.20;54.80;;;;;;5076314;28;20186;-79
2022/12/26 12:14:52;;;;;;;7.72;5.32;;;19.20;55.50;;;;;;5093306;28;20216;-79
2022/12/26 12:17:21;;;;;;;7.22;4.95;;;19.30;56.20;;;;;;5092577;28;20194;-79
2022/12/26 12:19:56;;;;;;;8.18;5.68;;;19.30;55.70;;;;;;5093325;28;20217;-82
2022/12/26 12:22:57;;;;;;;7.07;5.57;;;19.30;55.40;;;;;;5093360;28;20289;-82
2022/12/26 12:25:48;;;;;;;10.60;5.95;;;19.30;55.10;;;;;;5049557;28;20220;-81
2022/12/26 12:28:28;;;;;;;9.05;6.25;;;19.30;55.20;;;;;;5085541;28;20294;-81
2022/12/26 12:31:00;;;;;;;11.93;6.22;;;19.30;54.80;;;;;;5096653;28;20243;-81
2022/12/26 12:33:35;;;;;;;9.98;5.00;;;19.40;55.10;;;;;;5096835;28;20217;-81
2022/12/26 12:36:08;;;;;;;6.57;4.47;;;19.30;54.50;;;;;;5096145;28;20205;-81
2022/12/26 12:38:40;;;;;;;7.18;4.55;;;19.30;54.30;;;;;;5096765;28;20222;-81
2022/12/26 12:41:26;;;;;;;7.85;4.50;;;19.40;54.10;;;;;;5079486;28;20194;-81
2022/12/26 12:43:56;;;;;;;6.88;4.65;;;19.40;54.10;;;;;;5097887;28;20217;-81
2022/12/26 12:46:28;;;;;;;6.63;4.60;;;19.40;54.10;;;;;;5096554;28;20205;-81
2022/12/26 12:49:11;;;;;;;5.57;4.50;;;19.40;54.10;;;;;;5096425;28;20225;-81
2022/12/26 12:51:41;;;;;;;12.90;7.10;;;19.40;54.00;;;;;;5096726;28;20217;-81
2022/12/26 12:54:53;;;;;;;9.52;5.57;;;19.40;54.10;;;;;;5096681;28;20189;-81
2022/12/26 12:57:25;;;;;;;8.55;5.72;;;19.40;54.10;;;;;;5090346;28;20565;-81
2022/12/26 12:59:58;;;;;;;7.75;4.82;;;19.40;54.10;;;;;;5097647;28;20194;-81
2022/12/26 13:02:27;;;;;;;8.52;5.07;;;19.40;54.10;;;;;;5098162;28;20437;-81
2022/12/26 13:04:59;;;;;;;10.68;5.20;;;19.50;54.20;;;;;;5097096;28;20290;-81
2022/12/26 13:07:31;;;;;;;8.95;4.78;;;19.60;53.90;;;;;;5096492;28;20187;-81
2022/12/26 13:10:01;;;;;;;6.80;4.68;;;19.60;54.00;;;;;;5095961;28;20198;-80
2022/12/26 13:12:33;;;;;;;5.78;4.60;;;19.70;53.70;;;;;;5096133;28;20194;-80
2022/12/26 13:15:01;;;;;;;6.78;4.95;;;19.70;53.50;;;;;;5080493;28;20197;-79
2022/12/26 13:17:31;;;;;;;7.43;5.00;;;19.80;53.40;;;;;;5097701;28;20545;-81
2022/12/26 13:20:00;;;;;;;7.28;4.40;;;19.80;53.40;;;;;;5095769;28;20202;-81
2022/12/26 13:24:22;;;;;;;8.60;4.88;;;19.90;53.30;;;;;;5095774;28;20229;-82
2022/12/26 13:25:15;;;;;;;8.00;4.93;;;19.90;53.60;;;;;;5094999;28;20609;-80
2022/12/26 13:27:43;;;;;;;107.15;77.78;;;19.90;53.40;;;;;;5095023;28;20213;-78
2022/12/26 13:30:13;;;;;;;206.48;161.30;;;20.00;54.30;;;;;;5094813;28;20182;-79
2022/12/26 13:32:40;;;;;;;176.95;141.43;;;20.00;55.20;;;;;;5094943;28;20201;-79
2022/12/26 13:35:45;;;;;;;207.60;157.25;;;20.10;55.30;;;;;;5096714;28;20201;-80
2022/12/26 13:38:12;;;;;;;298.30;253.23;;;20.20;55.90;;;;;;5100607;28;20253;-80
2022/12/26 13:40:45;;;;;;;218.23;184.25;;;20.20;56.90;;;;;;5099457;28;20718;-80
2022/12/26 13:46:02;;;;;;;319.02;274.75;;;20.20;57.50;;;;;;5104855;28;20206;-80
2022/12/26 13:48:58;;;;;;;287.55;250.90;;;20.20;57.70;;;;;;5102890;28;20218;-79
2022/12/26 13:51:50;;;;;;;358.75;319.98;;;20.30;57.80;;;;;;5103363;28;20193;-80
2022/12/26 13:54:19;;;;;;;305.17;272.85;;;20.30;58.00;;;;;;5096069;28;20668;-79
2022/12/26 13:57:14;;;;;;;233.80;204.90;;;20.30;57.40;;;;;;5097597;28;20321;-79
2022/12/26 13:59:47;;;;;;;182.38;152.93;;;20.30;56.90;;;;;;5097528;28;20637;-79
2022/12/26 14:02:31;;;;;;;158.13;132.25;;;20.40;56.60;;;;;;5101726;28;20190;-80
2022/12/26 14:05:01;;;;;;;135.02;114.90;;;20.40;56.80;;;;;;5104780;28;20194;-81
2022/12/26 14:07:32;;;;;;;137.85;115.18;;;20.40;56.60;;;;;;5101363;28;20190;-80
2022/12/26 14:10:04;;;;;;;115.20;96.20;;;20.40;55.70;;;;;;5104329;28;20280;-81
2022/12/26 14:12:57;;;;;;;119.18;99.65;;;20.40;55.40;;;;;;5103130;28;20194;-80
2022/12/26 14:15:34;;;;;;;120.32;96.20;;;20.40;56.00;;;;;;5102172;28;20194;-81
2022/12/26 14:18:09;;;;;;;116.78;92.93;;;20.40;55.60;;;;;;5101430;28;20221;-79
2022/12/26 14:20:42;;;;;;;146.70;70.70;;;20.40;55.80;;;;;;5100392;28;20194;-80
2022/12/26 14:23:28;;;;;;;51.53;28.02;;;20.40;52.00;;;;;;5097097;28;20214;-79
2022/12/26 14:26:01;;;;;;;39.83;22.95;;;20.20;51.10;;;;;;5096363;28;20201;-79
2022/12/26 14:28:33;;;;;;;46.30;26.35;;;20.00;51.70;;;;;;5095059;28;20233;-79
2022/12/26 14:31:12;;;;;;;41.65;26.23;;;20.00;52.40;;;;;;5094424;28;20194;-79
2022/12/26 14:33:44;;;;;;;46.88;28.27;;;20.00;53.60;;;;;;5097693;28;20210;-78
2022/12/26 14:36:19;;;;;;;44.78;27.40;;;20.00;54.00;;;;;;5095392;28;20221;-79
2022/12/26 14:38:50;;;;;;;42.85;27.15;;;20.00;54.30;;;;;;5095018;28;20217;-79
2022/12/26 14:44:11;;;;;;;44.85;29.38;;;20.10;54.10;;;;;;5100131;28;20225;-80
2022/12/26 14:46:58;;;;;;;53.80;33.60;;;20.10;54.00;;;;;;5097018;28;20198;-80
2022/12/26 14:49:37;;;;;;;50.38;33.45;;;20.10;54.20;;;;;;5096978;28;20237;-79
2022/12/26 14:52:33;;;;;;;52.88;34.63;;;20.20;55.10;;;;;;5097712;28;20285;-79
2022/12/26 14:55:00;;;;;;;45.78;30.63;;;20.20;54.40;;;;;;5096367;28;20218;-81
2022/12/26 14:57:45;;;;;;;48.83;31.98;;;20.20;54.00;;;;;;5095979;28;20194;-80
2022/12/26 15:00:30;;;;;;;50.80;32.33;;;20.20;54.30;;;;;;5078491;28;20706;-79
2022/12/26 15:03:30;;;;;;;46.47;32.13;;;20.20;54.20;;;;;;5094107;28;20206;-80
2022/12/26 15:06:13;;;;;;;45.28;29.13;;;20.20;54.40;;;;;;5089474;28;20206;-80